Etusivu
METAR-TAF:

METAR-TAF

Lentoasemat :

Isbell Field

Fort Payne, Alabama, Yhdysvallat

Leveyspiiri: 34-28-25N, Pituuspiiri: 085-43-17W, korkeus merenpinnasta: 267 m

Tämänhetkinen sää

Tämä raportti tehtiin 33 minuuttia sitten, kello 06.35 UTC
tyyntä
Lämpötila 17°C
Kosteus 94%
Ilmanpaine 1020 hPa
Näkyvyys: 11.3 km
Hajanaisia pilviä 2400 ft:n korkeudessa
Hajonneita pilviä 3200 ft:n korkeudessa
Pilvistä 5000 ft:n korkeudessa

METAR: K4A9 280635Z AUTO 00000KT 7SM SCT024 BKN032 OVC050 17/16 A3012 RMK AO2 T01730159

Aika: 01:08 (07:08 UTC)


TAF: puuttuu

Säähavainnot ja -ennusteet yli 4000 lentoasemalta (METAR- ja TAF-raportit).

Käytössä olevat sääasemat on merkitty karttaan keltaisilla ja punaisilla pisteillä.

Aseta hiiri pisteen päälle nähdäksesi sääaseman nimen.

Klikkaa sitten nähdäksesi säähavainnot ja -ennusteet.

Kartan vaihtaminen: klikkaa mustalla rastilla varustettuja vihreitä pisteitä, niin voit zoomata sisään; viivalla varustettua vihreää pistettä, niin voit zoomata ulos tai vihreitä nuolia, niin pääset viereisille kartoille.


METAR-TAF: